EmailTwitter


Surface observations / United Kingdom / EGLL (03772)

Regions: Quebec | Canada | USA | Europe | France | UK | Elsewhere
Station
Display
Info & Location for EGLL (03772) | Help decoding METAR

Weather Conditions observed on 2020/05/27 at 12:20 UTC at LONDON/HEATHROW, UK (EGLL)

Temperature: 24.0 Celsius.

Dewpoint: 10.0 Celsius.

Relative Humidity: 41%

Humidex: 25.

Winds: Variable at 4 km/h or 2 knots.

Mean Sea level Pressure: 103.50 kilopascals.

Horizontal visibility: 6.21 statute miles or 9.94 kilometers.

Coded METAR:

EGLL 271220Z AUTO VRB02KT 9999 NCD 24/10 Q1035 NOSIG=